sensor_id;sensor_type;location;lat;lon;timestamp;P1;durP1;ratioP1;P2;durP2;ratioP2
25341;SDS011;13298;48.792;9.154;2023-04-10T00:02:24;11.77;;;8.38;;
25341;SDS011;13298;48.792;9.154;2023-04-10T00:04:49;10.55;;;7.88;;
25341;SDS011;13298;48.792;9.154;2023-04-10T00:07:15;11.70;;;7.80;;
25341;SDS011;13298;48.792;9.154;2023-04-10T00:09:41;11.65;;;7.82;;
25341;SDS011;13298;48.792;9.154;2023-04-10T00:12:07;13.57;;;7.57;;
25341;SDS011;13298;48.792;9.154;2023-04-10T00:14:32;12.82;;;8.13;;
25341;SDS011;13298;48.792;9.154;2023-04-10T00:16:58;11.75;;;7.90;;
25341;SDS011;13298;48.792;9.154;2023-04-10T00:19:24;12.10;;;7.80;;
25341;SDS011;13298;48.792;9.154;2023-04-10T00:21:50;12.30;;;8.27;;
25341;SDS011;13298;48.792;9.154;2023-04-10T00:24:16;10.95;;;7.78;;
25341;SDS011;13298;48.792;9.154;2023-04-10T00:26:41;12.65;;;8.40;;
25341;SDS011;13298;48.792;9.154;2023-04-10T00:29:07;10.57;;;7.15;;
25341;SDS011;13298;48.792;9.154;2023-04-10T00:31:33;13.52;;;8.75;;
25341;SDS011;13298;48.792;9.154;2023-04-10T00:33:58;12.80;;;8.60;;
25341;SDS011;13298;48.792;9.154;2023-04-10T00:36:24;11.95;;;8.10;;
25341;SDS011;13298;48.792;9.154;2023-04-10T00:38:50;10.88;;;7.65;;
25341;SDS011;13298;48.792;9.154;2023-04-10T00:41:16;12.55;;;7.97;;
25341;SDS011;13298;48.792;9.154;2023-04-10T00:43:42;11.20;;;8.07;;
25341;SDS011;13298;48.792;9.154;2023-04-10T00:46:09;11.77;;;8.27;;
25341;SDS011;13298;48.792;9.154;2023-04-10T00:48:35;12.52;;;8.02;;
25341;SDS011;13298;48.792;9.154;2023-04-10T00:51:01;14.18;;;8.82;;
25341;SDS011;13298;48.792;9.154;2023-04-10T00:53:28;12.45;;;8.55;;
25341;SDS011;13298;48.792;9.154;2023-04-10T00:55:54;11.32;;;7.63;;
25341;SDS011;13298;48.792;9.154;2023-04-10T00:58:20;11.90;;;7.57;;
25341;SDS011;13298;48.792;9.154;2023-04-10T01:00:46;13.18;;;8.70;;
25341;SDS011;13298;48.792;9.154;2023-04-10T01:03:13;12.50;;;8.18;;
25341;SDS011;13298;48.792;9.154;2023-04-10T01:05:45;11.13;;;7.32;;
25341;SDS011;13298;48.792;9.154;2023-04-10T01:08:43;11.60;;;7.63;;
25341;SDS011;13298;48.792;9.154;2023-04-10T01:15:11;13.88;;;8.45;;
25341;SDS011;13298;48.792;9.154;2023-04-10T01:17:56;13.30;;;7.97;;
25341;SDS011;13298;48.792;9.154;2023-04-10T01:20:33;11.93;;;7.90;;
25341;SDS011;13298;48.792;9.154;2023-04-10T01:26:03;12.68;;;7.93;;
25341;SDS011;13298;48.792;9.154;2023-04-10T01:31:30;12.68;;;7.95;;
25341;SDS011;13298;48.792;9.154;2023-04-10T01:34:11;13.13;;;8.05;;
25341;SDS011;13298;48.792;9.154;2023-04-10T01:36:46;12.52;;;9.10;;
25341;SDS011;13298;48.792;9.154;2023-04-10T01:39:21;12.40;;;7.95;;
25341;SDS011;13298;48.792;9.154;2023-04-10T01:41:49;11.30;;;7.38;;
25341;SDS011;13298;48.792;9.154;2023-04-10T01:44:17;11.90;;;7.38;;
25341;SDS011;13298;48.792;9.154;2023-04-10T01:46:49;12.85;;;8.35;;
25341;SDS011;13298;48.792;9.154;2023-04-10T01:49:17;11.18;;;7.80;;
25341;SDS011;13298;48.792;9.154;2023-04-10T01:51:43;12.25;;;8.20;;
25341;SDS011;13298;48.792;9.154;2023-04-10T01:54:10;12.05;;;7.90;;
25341;SDS011;13298;48.792;9.154;2023-04-10T01:56:37;12.30;;;8.20;;
25341;SDS011;13298;48.792;9.154;2023-04-10T01:59:03;12.45;;;8.70;;
25341;SDS011;13298;48.792;9.154;2023-04-10T02:01:29;10.85;;;7.57;;
25341;SDS011;13298;48.792;9.154;2023-04-10T02:03:55;11.52;;;7.65;;
25341;SDS011;13298;48.792;9.154;2023-04-10T02:14:31;14.40;;;8.82;;
25341;SDS011;13298;48.792;9.154;2023-04-10T02:17:01;10.30;;;7.95;;
25341;SDS011;13298;48.792;9.154;2023-04-10T02:19:27;12.93;;;8.75;;
25341;SDS011;13298;48.792;9.154;2023-04-10T02:21:56;14.55;;;9.25;;
25341;SDS011;13298;48.792;9.154;2023-04-10T02:24:22;11.75;;;8.35;;
25341;SDS011;13298;48.792;9.154;2023-04-10T02:26:50;12.55;;;8.07;;
25341;SDS011;13298;48.792;9.154;2023-04-10T02:29:17;11.80;;;7.88;;
25341;SDS011;13298;48.792;9.154;2023-04-10T02:31:44;11.77;;;8.07;;
25341;SDS011;13298;48.792;9.154;2023-04-10T02:34:11;11.40;;;7.72;;
25341;SDS011;13298;48.792;9.154;2023-04-10T02:36:37;12.32;;;8.02;;
25341;SDS011;13298;48.792;9.154;2023-04-10T02:39:04;15.27;;;9.02;;
25341;SDS011;13298;48.792;9.154;2023-04-10T02:44:01;12.48;;;8.40;;
25341;SDS011;13298;48.792;9.154;2023-04-10T02:46:27;11.55;;;7.97;;
25341;SDS011;13298;48.792;9.154;2023-04-10T02:48:52;12.20;;;7.32;;
25341;SDS011;13298;48.792;9.154;2023-04-10T02:51:18;12.00;;;8.45;;
25341;SDS011;13298;48.792;9.154;2023-04-10T02:53:44;11.35;;;8.27;;
25341;SDS011;13298;48.792;9.154;2023-04-10T02:56:10;11.77;;;8.10;;
25341;SDS011;13298;48.792;9.154;2023-04-10T02:58:36;12.48;;;8.48;;
25341;SDS011;13298;48.792;9.154;2023-04-10T03:01:03;12.93;;;8.27;;
25341;SDS011;13298;48.792;9.154;2023-04-10T03:03:33;11.80;;;8.43;;
25341;SDS011;13298;48.792;9.154;2023-04-10T03:05:59;13.57;;;8.10;;
25341;SDS011;13298;48.792;9.154;2023-04-10T03:08:24;12.23;;;8.23;;
25341;SDS011;13298;48.792;9.154;2023-04-10T03:10:50;13.35;;;8.65;;
25341;SDS011;13298;48.792;9.154;2023-04-10T03:13:16;11.10;;;8.02;;
25341;SDS011;13298;48.792;9.154;2023-04-10T03:15:42;13.88;;;8.52;;
25341;SDS011;13298;48.792;9.154;2023-04-10T03:18:07;12.27;;;8.27;;
25341;SDS011;13298;48.792;9.154;2023-04-10T03:20:36;15.35;;;8.93;;
25341;SDS011;13298;48.792;9.154;2023-04-10T03:23:03;12.07;;;7.65;;
25341;SDS011;13298;48.792;9.154;2023-04-10T03:25:30;12.73;;;8.23;;
25341;SDS011;13298;48.792;9.154;2023-04-10T03:27:58;12.48;;;7.90;;
25341;SDS011;13298;48.792;9.154;2023-04-10T03:30:23;11.13;;;7.93;;
25341;SDS011;13298;48.792;9.154;2023-04-10T03:32:49;11.57;;;7.93;;
25341;SDS011;13298;48.792;9.154;2023-04-10T03:35:15;10.98;;;7.95;;
25341;SDS011;13298;48.792;9.154;2023-04-10T03:37:41;11.85;;;7.75;;
25341;SDS011;13298;48.792;9.154;2023-04-10T03:40:07;13.55;;;8.60;;
25341;SDS011;13298;48.792;9.154;2023-04-10T03:42:34;12.00;;;8.13;;
25341;SDS011;13298;48.792;9.154;2023-04-10T03:45:00;14.48;;;8.32;;
25341;SDS011;13298;48.792;9.154;2023-04-10T03:47:28;13.35;;;8.07;;
25341;SDS011;13298;48.792;9.154;2023-04-10T03:49:58;11.32;;;8.43;;
25341;SDS011;13298;48.792;9.154;2023-04-10T03:52:24;11.57;;;7.35;;
25341;SDS011;13298;48.792;9.154;2023-04-10T03:54:51;13.02;;;8.60;;
25341;SDS011;13298;48.792;9.154;2023-04-10T03:57:18;9.95;;;7.03;;
25341;SDS011;13298;48.792;9.154;2023-04-10T03:59:45;12.38;;;7.90;;
25341;SDS011;13298;48.792;9.154;2023-04-10T04:02:13;11.90;;;8.13;;
25341;SDS011;13298;48.792;9.154;2023-04-10T04:04:39;12.43;;;8.18;;
25341;SDS011;13298;48.792;9.154;2023-04-10T04:07:05;11.45;;;7.78;;
25341;SDS011;13298;48.792;9.154;2023-04-10T04:09:31;15.30;;;8.95;;
25341;SDS011;13298;48.792;9.154;2023-04-10T04:11:57;13.00;;;8.60;;
25341;SDS011;13298;48.792;9.154;2023-04-10T04:14:22;14.27;;;8.90;;
25341;SDS011;13298;48.792;9.154;2023-04-10T04:16:48;14.55;;;8.45;;
25341;SDS011;13298;48.792;9.154;2023-04-10T04:19:14;13.27;;;8.85;;
25341;SDS011;13298;48.792;9.154;2023-04-10T04:21:40;13.55;;;9.05;;
25341;SDS011;13298;48.792;9.154;2023-04-10T04:24:06;16.98;;;9.23;;
25341;SDS011;13298;48.792;9.154;2023-04-10T04:26:31;13.57;;;9.13;;
25341;SDS011;13298;48.792;9.154;2023-04-10T04:28:57;15.65;;;9.32;;
25341;SDS011;13298;48.792;9.154;2023-04-10T04:31:23;14.52;;;9.20;;
25341;SDS011;13298;48.792;9.154;2023-04-10T04:33:49;15.75;;;9.30;;
25341;SDS011;13298;48.792;9.154;2023-04-10T04:36:15;15.55;;;9.82;;
25341;SDS011;13298;48.792;9.154;2023-04-10T04:38:41;14.00;;;8.85;;
25341;SDS011;13298;48.792;9.154;2023-04-10T04:41:07;14.70;;;8.57;;
25341;SDS011;13298;48.792;9.154;2023-04-10T04:43:32;13.95;;;8.93;;
25341;SDS011;13298;48.792;9.154;2023-04-10T04:45:58;13.68;;;9.10;;
25341;SDS011;13298;48.792;9.154;2023-04-10T04:48:24;13.73;;;9.25;;
25341;SDS011;13298;48.792;9.154;2023-04-10T04:50:49;14.40;;;9.38;;
25341;SDS011;13298;48.792;9.154;2023-04-10T04:53:15;13.25;;;8.73;;
25341;SDS011;13298;48.792;9.154;2023-04-10T04:55:41;13.02;;;8.93;;
25341;SDS011;13298;48.792;9.154;2023-04-10T04:58:06;15.45;;;9.43;;
25341;SDS011;13298;48.792;9.154;2023-04-10T05:00:32;13.20;;;9.00;;
25341;SDS011;13298;48.792;9.154;2023-04-10T05:02:58;12.50;;;8.77;;
25341;SDS011;13298;48.792;9.154;2023-04-10T05:05:23;12.77;;;8.85;;
25341;SDS011;13298;48.792;9.154;2023-04-10T05:07:49;15.60;;;8.85;;
25341;SDS011;13298;48.792;9.154;2023-04-10T05:10:15;13.45;;;8.75;;
25341;SDS011;13298;48.792;9.154;2023-04-10T05:12:41;15.50;;;8.95;;
25341;SDS011;13298;48.792;9.154;2023-04-10T05:15:07;16.27;;;8.73;;
25341;SDS011;13298;48.792;9.154;2023-04-10T05:17:33;15.75;;;8.88;;
25341;SDS011;13298;48.792;9.154;2023-04-10T05:19:59;15.52;;;8.77;;
25341;SDS011;13298;48.792;9.154;2023-04-10T05:22:25;14.63;;;9.45;;
25341;SDS011;13298;48.792;9.154;2023-04-10T05:24:52;11.75;;;8.00;;
25341;SDS011;13298;48.792;9.154;2023-04-10T05:27:19;13.73;;;8.38;;
25341;SDS011;13298;48.792;9.154;2023-04-10T05:29:45;11.43;;;8.07;;
25341;SDS011;13298;48.792;9.154;2023-04-10T05:32:12;12.35;;;7.95;;
25341;SDS011;13298;48.792;9.154;2023-04-10T05:34:38;12.63;;;7.88;;
25341;SDS011;13298;48.792;9.154;2023-04-10T05:37:04;11.00;;;7.68;;
25341;SDS011;13298;48.792;9.154;2023-04-10T05:39:30;10.75;;;7.55;;
25341;SDS011;13298;48.792;9.154;2023-04-10T05:41:55;11.88;;;7.85;;
25341;SDS011;13298;48.792;9.154;2023-04-10T05:44:22;11.98;;;7.53;;
25341;SDS011;13298;48.792;9.154;2023-04-10T05:46:48;11.57;;;8.00;;
25341;SDS011;13298;48.792;9.154;2023-04-10T05:49:13;10.82;;;7.50;;
25341;SDS011;13298;48.792;9.154;2023-04-10T05:51:40;11.77;;;6.80;;
25341;SDS011;13298;48.792;9.154;2023-04-10T05:54:06;9.95;;;6.80;;
25341;SDS011;13298;48.792;9.154;2023-04-10T05:56:32;10.10;;;6.80;;
25341;SDS011;13298;48.792;9.154;2023-04-10T05:58:58;10.13;;;6.88;;
25341;SDS011;13298;48.792;9.154;2023-04-10T06:01:23;10.27;;;6.78;;
25341;SDS011;13298;48.792;9.154;2023-04-10T06:03:49;9.95;;;6.57;;
25341;SDS011;13298;48.792;9.154;2023-04-10T06:06:15;10.70;;;7.47;;
25341;SDS011;13298;48.792;9.154;2023-04-10T06:08:41;12.60;;;7.15;;
25341;SDS011;13298;48.792;9.154;2023-04-10T06:11:07;9.90;;;6.47;;
25341;SDS011;13298;48.792;9.154;2023-04-10T06:13:33;10.25;;;7.03;;
25341;SDS011;13298;48.792;9.154;2023-04-10T06:15:58;8.40;;;5.93;;
25341;SDS011;13298;48.792;9.154;2023-04-10T06:18:24;8.85;;;6.45;;
25341;SDS011;13298;48.792;9.154;2023-04-10T06:20:50;10.13;;;6.45;;
25341;SDS011;13298;48.792;9.154;2023-04-10T06:23:15;8.05;;;5.95;;
25341;SDS011;13298;48.792;9.154;2023-04-10T06:25:42;7.70;;;5.68;;
25341;SDS011;13298;48.792;9.154;2023-04-10T06:28:08;8.45;;;6.28;;
25341;SDS011;13298;48.792;9.154;2023-04-10T06:30:33;9.68;;;6.13;;
25341;SDS011;13298;48.792;9.154;2023-04-10T06:33:01;9.00;;;6.40;;
25341;SDS011;13298;48.792;9.154;2023-04-10T06:35:26;12.82;;;6.40;;
25341;SDS011;13298;48.792;9.154;2023-04-10T06:37:52;9.93;;;7.05;;
25341;SDS011;13298;48.792;9.154;2023-04-10T06:40:18;8.98;;;6.45;;
25341;SDS011;13298;48.792;9.154;2023-04-10T06:42:43;10.05;;;6.47;;
25341;SDS011;13298;48.792;9.154;2023-04-10T06:45:09;8.75;;;6.50;;
25341;SDS011;13298;48.792;9.154;2023-04-10T06:47:35;10.10;;;6.90;;
25341;SDS011;13298;48.792;9.154;2023-04-10T06:50:01;10.00;;;7.15;;
25341;SDS011;13298;48.792;9.154;2023-04-10T06:52:26;11.45;;;7.47;;
25341;SDS011;13298;48.792;9.154;2023-04-10T06:54:52;12.07;;;7.70;;
25341;SDS011;13298;48.792;9.154;2023-04-10T06:57:18;7.97;;;6.60;;
25341;SDS011;13298;48.792;9.154;2023-04-10T06:59:44;12.55;;;7.18;;
25341;SDS011;13298;48.792;9.154;2023-04-10T07:02:09;11.35;;;7.55;;
25341;SDS011;13298;48.792;9.154;2023-04-10T07:04:35;9.90;;;7.45;;
25341;SDS011;13298;48.792;9.154;2023-04-10T07:07:01;9.90;;;7.25;;
25341;SDS011;13298;48.792;9.154;2023-04-10T07:09:28;8.88;;;6.60;;
25341;SDS011;13298;48.792;9.154;2023-04-10T07:11:54;9.25;;;7.13;;
25341;SDS011;13298;48.792;9.154;2023-04-10T07:14:20;11.65;;;6.40;;
25341;SDS011;13298;48.792;9.154;2023-04-10T07:16:46;10.25;;;6.72;;
25341;SDS011;13298;48.792;9.154;2023-04-10T07:19:13;9.00;;;6.18;;
25341;SDS011;13298;48.792;9.154;2023-04-10T07:21:39;8.85;;;6.00;;
25341;SDS011;13298;48.792;9.154;2023-04-10T07:24:05;9.30;;;6.20;;
25341;SDS011;13298;48.792;9.154;2023-04-10T07:26:31;9.68;;;6.70;;
25341;SDS011;13298;48.792;9.154;2023-04-10T07:28:56;9.73;;;6.68;;
25341;SDS011;13298;48.792;9.154;2023-04-10T07:31:22;9.82;;;5.97;;
25341;SDS011;13298;48.792;9.154;2023-04-10T07:33:48;11.32;;;6.88;;
25341;SDS011;13298;48.792;9.154;2023-04-10T07:36:13;7.03;;;6.00;;
25341;SDS011;13298;48.792;9.154;2023-04-10T07:38:40;7.90;;;5.60;;
25341;SDS011;13298;48.792;9.154;2023-04-10T07:41:06;7.85;;;5.43;;
25341;SDS011;13298;48.792;9.154;2023-04-10T07:43:33;8.45;;;6.15;;
25341;SDS011;13298;48.792;9.154;2023-04-10T07:45:59;7.00;;;5.40;;
25341;SDS011;13298;48.792;9.154;2023-04-10T07:48:25;9.00;;;6.00;;
25341;SDS011;13298;48.792;9.154;2023-04-10T07:50:50;9.13;;;5.97;;
25341;SDS011;13298;48.792;9.154;2023-04-10T07:53:17;9.77;;;5.95;;
25341;SDS011;13298;48.792;9.154;2023-04-10T07:55:43;7.40;;;5.57;;
25341;SDS011;13298;48.792;9.154;2023-04-10T07:58:12;7.60;;;5.80;;
25341;SDS011;13298;48.792;9.154;2023-04-10T08:00:38;7.93;;;5.53;;
25341;SDS011;13298;48.792;9.154;2023-04-10T08:03:04;7.43;;;4.70;;
25341;SDS011;13298;48.792;9.154;2023-04-10T08:05:30;7.72;;;4.88;;
25341;SDS011;13298;48.792;9.154;2023-04-10T08:07:56;7.60;;;5.65;;
25341;SDS011;13298;48.792;9.154;2023-04-10T08:10:21;5.97;;;4.55;;
25341;SDS011;13298;48.792;9.154;2023-04-10T08:12:47;7.35;;;5.32;;
25341;SDS011;13298;48.792;9.154;2023-04-10T08:15:13;8.77;;;4.88;;
25341;SDS011;13298;48.792;9.154;2023-04-10T08:17:38;6.22;;;4.45;;
25341;SDS011;13298;48.792;9.154;2023-04-10T08:20:04;5.38;;;4.07;;
25341;SDS011;13298;48.792;9.154;2023-04-10T08:22:31;6.72;;;4.80;;
25341;SDS011;13298;48.792;9.154;2023-04-10T08:24:56;5.97;;;4.53;;
25341;SDS011;13298;48.792;9.154;2023-04-10T08:27:22;5.82;;;4.13;;
25341;SDS011;13298;48.792;9.154;2023-04-10T08:29:48;4.90;;;4.05;;
25341;SDS011;13298;48.792;9.154;2023-04-10T08:32:13;5.45;;;3.78;;
25341;SDS011;13298;48.792;9.154;2023-04-10T08:34:39;7.07;;;4.55;;
25341;SDS011;13298;48.792;9.154;2023-04-10T08:37:05;5.95;;;4.10;;
25341;SDS011;13298;48.792;9.154;2023-04-10T08:39:34;6.78;;;4.00;;
25341;SDS011;13298;48.792;9.154;2023-04-10T08:44:26;6.32;;;4.32;;
25341;SDS011;13298;48.792;9.154;2023-04-10T08:46:52;5.10;;;3.78;;
25341;SDS011;13298;48.792;9.154;2023-04-10T08:49:26;4.93;;;3.78;;
25341;SDS011;13298;48.792;9.154;2023-04-10T08:52:06;5.15;;;3.47;;
25341;SDS011;13298;48.792;9.154;2023-04-10T08:54:34;4.22;;;3.58;;
25341;SDS011;13298;48.792;9.154;2023-04-10T08:57:03;4.45;;;3.30;;
25341;SDS011;13298;48.792;9.154;2023-04-10T08:59:31;5.05;;;3.67;;
25341;SDS011;13298;48.792;9.154;2023-04-10T09:01:57;5.85;;;3.72;;
25341;SDS011;13298;48.792;9.154;2023-04-10T09:04:24;4.22;;;2.92;;
25341;SDS011;13298;48.792;9.154;2023-04-10T09:06:51;4.60;;;3.42;;
25341;SDS011;13298;48.792;9.154;2023-04-10T09:09:17;4.85;;;3.30;;
25341;SDS011;13298;48.792;9.154;2023-04-10T09:14:24;4.32;;;2.90;;
25341;SDS011;13298;48.792;9.154;2023-04-10T09:16:53;4.53;;;3.22;;
25341;SDS011;13298;48.792;9.154;2023-04-10T09:19:40;8.10;;;3.25;;
25341;SDS011;13298;48.792;9.154;2023-04-10T09:22:06;4.82;;;3.10;;
25341;SDS011;13298;48.792;9.154;2023-04-10T09:24:36;4.55;;;3.00;;
25341;SDS011;13298;48.792;9.154;2023-04-10T09:27:04;4.38;;;3.03;;
25341;SDS011;13298;48.792;9.154;2023-04-10T09:32:07;3.88;;;2.92;;
25341;SDS011;13298;48.792;9.154;2023-04-10T09:34:38;4.50;;;3.13;;
25341;SDS011;13298;48.792;9.154;2023-04-10T09:37:18;3.40;;;2.88;;
25341;SDS011;13298;48.792;9.154;2023-04-10T09:39:46;3.03;;;2.42;;
25341;SDS011;13298;48.792;9.154;2023-04-10T09:42:12;3.47;;;3.15;;
25341;SDS011;13298;48.792;9.154;2023-04-10T09:44:39;3.17;;;2.60;;
25341;SDS011;13298;48.792;9.154;2023-04-10T09:49:47;3.67;;;2.55;;
25341;SDS011;13298;48.792;9.154;2023-04-10T09:54:53;3.88;;;2.30;;
25341;SDS011;13298;48.792;9.154;2023-04-10T09:57:22;2.78;;;2.47;;
25341;SDS011;13298;48.792;9.154;2023-04-10T09:59:50;3.42;;;2.35;;
25341;SDS011;13298;48.792;9.154;2023-04-10T10:02:19;3.72;;;2.67;;
25341;SDS011;13298;48.792;9.154;2023-04-10T10:04:48;3.25;;;2.35;;
25341;SDS011;13298;48.792;9.154;2023-04-10T10:07:16;3.95;;;2.40;;
25341;SDS011;13298;48.792;9.154;2023-04-10T10:09:45;3.63;;;2.40;;
25341;SDS011;13298;48.792;9.154;2023-04-10T10:12:14;3.42;;;2.40;;
25341;SDS011;13298;48.792;9.154;2023-04-10T10:14:52;3.35;;;2.35;;
25341;SDS011;13298;48.792;9.154;2023-04-10T10:17:27;3.65;;;2.40;;
25341;SDS011;13298;48.792;9.154;2023-04-10T10:20:03;4.90;;;2.72;;
25341;SDS011;13298;48.792;9.154;2023-04-10T10:22:34;3.15;;;2.35;;
25341;SDS011;13298;48.792;9.154;2023-04-10T10:25:01;3.25;;;2.53;;
25341;SDS011;13298;48.792;9.154;2023-04-10T10:27:29;3.45;;;2.50;;
25341;SDS011;13298;48.792;9.154;2023-04-10T10:29:58;2.85;;;2.20;;
25341;SDS011;13298;48.792;9.154;2023-04-10T10:32:25;4.38;;;2.10;;
25341;SDS011;13298;48.792;9.154;2023-04-10T10:34:52;2.88;;;2.08;;
25341;SDS011;13298;48.792;9.154;2023-04-10T10:37:21;2.60;;;1.95;;
25341;SDS011;13298;48.792;9.154;2023-04-10T10:45:17;3.70;;;1.90;;
25341;SDS011;13298;48.792;9.154;2023-04-10T10:47:53;1.73;;;1.35;;
25341;SDS011;13298;48.792;9.154;2023-04-10T10:50:19;1.73;;;1.42;;
25341;SDS011;13298;48.792;9.154;2023-04-10T10:52:54;1.40;;;1.30;;
25341;SDS011;13298;48.792;9.154;2023-04-10T11:00:25;4.20;;;1.48;;
25341;SDS011;13298;48.792;9.154;2023-04-10T11:05:59;2.03;;;1.42;;
25341;SDS011;13298;48.792;9.154;2023-04-10T11:13:39;1.90;;;1.33;;
25341;SDS011;13298;48.792;9.154;2023-04-10T11:16:14;2.13;;;1.33;;
25341;SDS011;13298;48.792;9.154;2023-04-10T11:21:21;1.73;;;1.20;;
25341;SDS011;13298;48.792;9.154;2023-04-10T11:28:57;2.15;;;1.27;;
25341;SDS011;13298;48.792;9.154;2023-04-10T11:31:24;2.58;;;1.27;;
25341;SDS011;13298;48.792;9.154;2023-04-10T11:36:27;1.10;;;1.00;;
25341;SDS011;13298;48.792;9.154;2023-04-10T11:39:05;1.98;;;1.38;;
25341;SDS011;13298;48.792;9.154;2023-04-10T11:41:34;1.63;;;1.30;;
25341;SDS011;13298;48.792;9.154;2023-04-10T11:44:06;2.33;;;1.30;;
25341;SDS011;13298;48.792;9.154;2023-04-10T11:46:37;2.15;;;1.45;;
25341;SDS011;13298;48.792;9.154;2023-04-10T11:49:05;1.80;;;1.05;;
25341;SDS011;13298;48.792;9.154;2023-04-10T11:51:33;1.70;;;1.13;;
25341;SDS011;13298;48.792;9.154;2023-04-10T11:56:40;1.35;;;1.15;;
25341;SDS011;13298;48.792;9.154;2023-04-10T11:59:09;1.67;;;1.20;;
25341;SDS011;13298;48.792;9.154;2023-04-10T12:01:37;2.08;;;1.50;;
25341;SDS011;13298;48.792;9.154;2023-04-10T12:04:16;1.23;;;0.90;;
25341;SDS011;13298;48.792;9.154;2023-04-10T12:06:47;1.30;;;1.00;;
25341;SDS011;13298;48.792;9.154;2023-04-10T12:09:16;1.20;;;1.05;;
25341;SDS011;13298;48.792;9.154;2023-04-10T12:11:55;1.30;;;1.05;;
25341;SDS011;13298;48.792;9.154;2023-04-10T12:14:31;1.23;;;0.80;;
25341;SDS011;13298;48.792;9.154;2023-04-10T12:17:08;1.38;;;1.00;;
25341;SDS011;13298;48.792;9.154;2023-04-10T12:19:36;1.30;;;0.90;;
25341;SDS011;13298;48.792;9.154;2023-04-10T12:22:02;0.77;;;0.70;;
25341;SDS011;13298;48.792;9.154;2023-04-10T12:24:45;1.10;;;0.80;;
25341;SDS011;13298;48.792;9.154;2023-04-10T12:27:26;1.15;;;0.90;;
25341;SDS011;13298;48.792;9.154;2023-04-10T12:29:56;1.25;;;0.88;;
25341;SDS011;13298;48.792;9.154;2023-04-10T12:32:23;0.80;;;0.80;;
25341;SDS011;13298;48.792;9.154;2023-04-10T12:34:55;0.90;;;0.60;;
25341;SDS011;13298;48.792;9.154;2023-04-10T12:37:23;1.02;;;0.60;;
25341;SDS011;13298;48.792;9.154;2023-04-10T12:39:49;0.57;;;0.50;;
25341;SDS011;13298;48.792;9.154;2023-04-10T12:42:21;0.60;;;0.60;;
25341;SDS011;13298;48.792;9.154;2023-04-10T12:44:56;0.75;;;0.65;;
25341;SDS011;13298;48.792;9.154;2023-04-10T12:47:24;0.90;;;0.70;;
25341;SDS011;13298;48.792;9.154;2023-04-10T12:52:36;1.45;;;0.70;;
25341;SDS011;13298;48.792;9.154;2023-04-10T12:57:41;0.75;;;0.75;;
25341;SDS011;13298;48.792;9.154;2023-04-10T13:00:10;1.00;;;0.90;;
25341;SDS011;13298;48.792;9.154;2023-04-10T13:02:41;0.65;;;0.65;;
25341;SDS011;13298;48.792;9.154;2023-04-10T13:05:07;1.30;;;0.88;;
25341;SDS011;13298;48.792;9.154;2023-04-10T13:07:34;0.93;;;0.73;;
25341;SDS011;13298;48.792;9.154;2023-04-10T13:10:03;1.10;;;0.77;;
25341;SDS011;13298;48.792;9.154;2023-04-10T13:12:30;1.13;;;0.80;;
25341;SDS011;13298;48.792;9.154;2023-04-10T13:14:58;3.80;;;0.80;;
25341;SDS011;13298;48.792;9.154;2023-04-10T13:17:25;1.17;;;0.90;;
25341;SDS011;13298;48.792;9.154;2023-04-10T13:19:51;1.38;;;0.80;;
25341;SDS011;13298;48.792;9.154;2023-04-10T13:22:17;1.00;;;0.90;;
25341;SDS011;13298;48.792;9.154;2023-04-10T13:24:44;1.50;;;0.80;;
25341;SDS011;13298;48.792;9.154;2023-04-10T13:27:10;1.10;;;1.00;;
25341;SDS011;13298;48.792;9.154;2023-04-10T13:29:37;0.95;;;0.88;;
25341;SDS011;13298;48.792;9.154;2023-04-10T13:32:05;0.90;;;0.90;;
25341;SDS011;13298;48.792;9.154;2023-04-10T13:34:31;0.93;;;0.73;;
25341;SDS011;13298;48.792;9.154;2023-04-10T13:36:57;1.05;;;0.82;;
25341;SDS011;13298;48.792;9.154;2023-04-10T13:39:24;1.05;;;0.88;;
25341;SDS011;13298;48.792;9.154;2023-04-10T13:41:52;1.52;;;1.00;;
25341;SDS011;13298;48.792;9.154;2023-04-10T13:44:17;1.10;;;1.00;;
25341;SDS011;13298;48.792;9.154;2023-04-10T13:46:43;1.38;;;1.10;;
25341;SDS011;13298;48.792;9.154;2023-04-10T13:49:09;1.73;;;1.13;;
25341;SDS011;13298;48.792;9.154;2023-04-10T13:51:34;1.30;;;1.10;;
25341;SDS011;13298;48.792;9.154;2023-04-10T13:54:01;1.45;;;1.00;;
25341;SDS011;13298;48.792;9.154;2023-04-10T13:56:29;1.63;;;1.10;;
25341;SDS011;13298;48.792;9.154;2023-04-10T13:58:54;1.80;;;1.10;;
25341;SDS011;13298;48.792;9.154;2023-04-10T14:01:20;1.63;;;1.20;;
25341;SDS011;13298;48.792;9.154;2023-04-10T14:03:46;1.67;;;1.13;;
25341;SDS011;13298;48.792;9.154;2023-04-10T14:06:12;1.30;;;1.20;;
25341;SDS011;13298;48.792;9.154;2023-04-10T14:08:38;1.10;;;1.00;;
25341;SDS011;13298;48.792;9.154;2023-04-10T14:11:04;1.23;;;1.08;;
25341;SDS011;13298;48.792;9.154;2023-04-10T14:13:30;2.00;;;1.15;;
25341;SDS011;13298;48.792;9.154;2023-04-10T14:15:56;1.70;;;1.20;;
25341;SDS011;13298;48.792;9.154;2023-04-10T14:18:21;1.33;;;1.13;;
25341;SDS011;13298;48.792;9.154;2023-04-10T14:20:47;1.27;;;1.17;;
25341;SDS011;13298;48.792;9.154;2023-04-10T14:23:13;1.40;;;1.15;;
25341;SDS011;13298;48.792;9.154;2023-04-10T14:25:42;1.90;;;1.27;;
25341;SDS011;13298;48.792;9.154;2023-04-10T14:28:13;1.42;;;1.25;;
25341;SDS011;13298;48.792;9.154;2023-04-10T14:30:44;1.50;;;1.10;;
25341;SDS011;13298;48.792;9.154;2023-04-10T14:33:12;1.48;;;1.13;;
25341;SDS011;13298;48.792;9.154;2023-04-10T14:35:38;1.20;;;1.10;;
25341;SDS011;13298;48.792;9.154;2023-04-10T14:38:04;1.45;;;1.00;;
25341;SDS011;13298;48.792;9.154;2023-04-10T14:40:29;2.65;;;1.10;;
25341;SDS011;13298;48.792;9.154;2023-04-10T14:42:55;1.77;;;1.10;;
25341;SDS011;13298;48.792;9.154;2023-04-10T14:45:21;2.45;;;1.25;;
25341;SDS011;13298;48.792;9.154;2023-04-10T14:47:46;2.88;;;1.42;;
25341;SDS011;13298;48.792;9.154;2023-04-10T14:50:12;1.25;;;1.15;;
25341;SDS011;13298;48.792;9.154;2023-04-10T14:52:38;2.20;;;1.23;;
25341;SDS011;13298;48.792;9.154;2023-04-10T14:55:04;3.85;;;1.20;;
25341;SDS011;13298;48.792;9.154;2023-04-10T14:57:30;3.38;;;1.40;;
25341;SDS011;13298;48.792;9.154;2023-04-10T14:59:55;1.88;;;1.40;;
25341;SDS011;13298;48.792;9.154;2023-04-10T15:02:21;1.45;;;1.20;;
25341;SDS011;13298;48.792;9.154;2023-04-10T15:04:50;1.30;;;1.20;;
25341;SDS011;13298;48.792;9.154;2023-04-10T15:07:15;1.27;;;1.17;;
25341;SDS011;13298;48.792;9.154;2023-04-10T15:09:41;1.20;;;1.05;;
25341;SDS011;13298;48.792;9.154;2023-04-10T15:12:08;1.40;;;1.00;;
25341;SDS011;13298;48.792;9.154;2023-04-10T15:14:34;1.80;;;1.13;;
25341;SDS011;13298;48.792;9.154;2023-04-10T15:17:00;2.28;;;1.30;;
25341;SDS011;13298;48.792;9.154;2023-04-10T15:19:25;2.03;;;1.35;;
25341;SDS011;13298;48.792;9.154;2023-04-10T15:21:52;1.73;;;1.35;;
25341;SDS011;13298;48.792;9.154;2023-04-10T15:24:18;1.80;;;1.25;;
25341;SDS011;13298;48.792;9.154;2023-04-10T15:26:44;2.47;;;1.30;;
25341;SDS011;13298;48.792;9.154;2023-04-10T15:29:13;2.03;;;1.10;;
25341;SDS011;13298;48.792;9.154;2023-04-10T15:31:38;2.03;;;1.35;;
25341;SDS011;13298;48.792;9.154;2023-04-10T15:34:05;2.50;;;1.30;;
25341;SDS011;13298;48.792;9.154;2023-04-10T15:36:31;2.78;;;1.30;;
25341;SDS011;13298;48.792;9.154;2023-04-10T15:38:57;1.42;;;1.23;;
25341;SDS011;13298;48.792;9.154;2023-04-10T15:41:27;1.42;;;1.13;;
25341;SDS011;13298;48.792;9.154;2023-04-10T15:43:55;1.30;;;1.10;;
25341;SDS011;13298;48.792;9.154;2023-04-10T15:46:21;2.00;;;1.70;;
25341;SDS011;13298;48.792;9.154;2023-04-10T15:48:47;1.67;;;1.27;;
25341;SDS011;13298;48.792;9.154;2023-04-10T15:51:13;1.48;;;1.00;;
25341;SDS011;13298;48.792;9.154;2023-04-10T15:53:38;1.92;;;1.52;;
25341;SDS011;13298;48.792;9.154;2023-04-10T15:56:04;1.83;;;1.35;;